Time;durP1;ratioP1;P1;durP2;ratioP2;P2;SDS_P1;SDS_P2;PMS_P1;PMS_P2;Temp;Humidity;BMP_temperature;BMP_pressure;BME280_temperature;BME280_humidity;BME280_pressure;Samples;Min_cycle;Max_cycle;Signal;HPM_P1;HPM_P2
2023/06/03 00:00:57;;;;;;;;;;;;;;;10.10;64.96;97508.48;108999;1249;99637;-77
2023/06/03 00:03:46;;;;;;;;;;;;;;;10.04;65.01;97506.14;108997;1249;95599;-74
2023/06/03 00:06:14;;;;;;;;;;;;;;;9.99;65.15;97505.77;109075;1249;95944;-74
2023/06/03 00:08:43;;;;;;;;;;;;;;;9.91;65.09;97507.20;109050;1249;103562;-74
2023/06/03 00:11:11;;;;;;;;;;;;;;;9.83;65.29;97510.00;108997;1250;101096;-74
2023/06/03 00:13:39;;;;;;;;;;;;;;;9.79;65.33;97509.33;108985;1249;99856;-74
2023/06/03 00:16:07;;;;;;;;;;;;;;;9.73;65.38;97511.52;109088;1249;95572;-77
2023/06/03 00:18:35;;;;;;;;;;;;;;;9.65;65.43;97514.85;109046;1249;95610;-73
2023/06/03 00:21:04;;;;;;;;;;;;;;;9.60;65.51;97516.70;109021;1249;103454;-73
2023/06/03 00:23:33;;;;;;;;;;;;;;;9.55;65.58;97520.74;108742;1250;100582;-74
2023/06/03 00:26:01;;;;;;;;;;;;;;;9.51;65.68;97519.91;108989;1249;99865;-75
2023/06/03 00:28:29;;;;;;;;;;;;;;;9.44;65.59;97520.13;108776;1250;95611;-76
2023/06/03 00:30:57;;;;;;;;;;;;;;;9.36;65.84;97515.33;108978;1249;95626;-74
2023/06/03 00:33:26;;;;;;;;;;;;;;;9.31;65.99;97519.99;109032;1249;103447;-74
2023/06/03 00:35:54;;;;;;;;;;;;;;;9.27;65.99;97521.89;109028;1249;100319;-73
2023/06/03 00:38:22;;;;;;;;;;;;;;;9.19;65.71;97526.94;109033;1249;99839;-79
2023/06/03 00:40:50;;;;;;;;;;;;;;;9.09;65.83;97528.49;109040;1249;95542;-75
2023/06/03 00:43:17;;;;;;;;;;;;;;;9.03;66.04;97525.21;109082;1249;95592;-74
2023/06/03 00:45:45;;;;;;;;;;;;;;;9.00;66.09;97524.77;109053;1249;103341;-76
2023/06/03 00:48:14;;;;;;;;;;;;;;;8.96;66.11;97524.39;109053;1249;101253;-74
2023/06/03 00:50:41;;;;;;;;;;;;;;;8.91;66.20;97524.84;108956;1249;99616;-74
2023/06/03 00:53:10;;;;;;;;;;;;;;;8.87;66.28;97526.26;109012;1249;95587;-74
2023/06/03 00:55:38;;;;;;;;;;;;;;;8.83;66.36;97526.60;108839;1249;95610;-78
2023/06/03 00:58:06;;;;;;;;;;;;;;;8.81;66.44;97522.42;109059;1249;103123;-73
2023/06/03 01:00:34;;;;;;;;;;;;;;;8.77;66.30;97519.19;109065;1249;101420;-76
2023/06/03 01:03:02;;;;;;;;;;;;;;;8.69;66.19;97527.05;109035;1250;99784;-79
2023/06/03 01:05:32;;;;;;;;;;;;;;;8.59;66.39;97525.98;109009;1249;95534;-73
2023/06/03 01:08:15;;;;;;;;;;;;;;;8.51;66.31;97531.70;109065;1249;95587;-78
2023/06/03 01:11:08;;;;;;;;;;;;;;;8.46;66.64;97533.52;109082;1249;103676;-74
2023/06/03 01:13:43;;;;;;;;;;;;;;;8.40;66.48;97533.94;109055;1250;101432;-73
2023/06/03 01:16:13;;;;;;;;;;;;;;;8.34;66.67;97531.02;109053;1249;99996;-76
2023/06/03 01:18:41;;;;;;;;;;;;;;;8.27;66.49;97535.91;109024;1249;95813;-74
2023/06/03 01:21:12;;;;;;;;;;;;;;;8.14;66.38;97538.77;109001;1249;95681;-73
2023/06/03 01:23:43;;;;;;;;;;;;;;;7.97;66.63;97535.77;109045;1249;103796;-73
2023/06/03 01:26:12;;;;;;;;;;;;;;;7.92;67.10;97531.50;109070;1249;100366;-72
2023/06/03 01:28:40;;;;;;;;;;;;;;;7.95;67.33;97533.14;109003;1249;99163;-76
2023/06/03 01:31:07;;;;;;;;;;;;;;;7.97;67.39;97536.83;108722;1250;96406;-73
2023/06/03 01:33:36;;;;;;;;;;;;;;;7.95;67.17;97537.61;109023;1249;95583;-77
2023/06/03 01:36:05;;;;;;;;;;;;;;;7.91;67.08;97537.40;109061;1249;103382;-73
2023/06/03 01:38:34;;;;;;;;;;;;;;;7.84;67.01;97541.91;108964;1249;101287;-73
2023/06/03 01:41:04;;;;;;;;;;;;;;;7.74;67.00;97543.66;108634;1250;100388;-77
2023/06/03 01:43:32;;;;;;;;;;;;;;;7.66;67.17;97538.85;109057;1249;95531;-74
2023/06/03 01:46:00;;;;;;;;;;;;;;;7.59;67.46;97542.96;109074;1249;95569;-74
2023/06/03 01:48:28;;;;;;;;;;;;;;;7.61;67.56;97543.02;109033;1249;103152;-74
2023/06/03 01:50:56;;;;;;;;;;;;;;;7.57;67.40;97540.83;109012;1249;101304;-74
2023/06/03 01:53:23;;;;;;;;;;;;;;;7.54;67.48;97537.40;108803;1250;99957;-76
2023/06/03 01:55:51;;;;;;;;;;;;;;;7.53;67.58;97539.45;108980;1249;95535;-79
2023/06/03 01:58:19;;;;;;;;;;;;;;;7.51;67.48;97542.08;109057;1249;95646;-73
2023/06/03 02:00:48;;;;;;;;;;;;;;;7.48;67.54;97542.14;108953;1249;102075;-73
2023/06/03 02:03:16;;;;;;;;;;;;;;;7.46;67.60;97541.12;109071;1249;101489;-75
2023/06/03 02:05:44;;;;;;;;;;;;;;;7.42;67.56;97543.84;108985;1249;99721;-74
2023/06/03 02:08:11;;;;;;;;;;;;;;;7.40;67.43;97546.65;108997;1249;95831;-74
2023/06/03 02:10:39;;;;;;;;;;;;;;;7.36;67.43;97547.90;109064;1249;95928;-74
2023/06/03 02:13:07;;;;;;;;;;;;;;;7.31;67.51;97550.77;108691;1249;104453;-77
2023/06/03 02:15:37;;;;;;;;;;;;;;;7.28;67.63;97552.20;109052;1249;101060;-73
2023/06/03 02:18:06;;;;;;;;;;;;;;;7.27;67.73;97559.70;109008;1249;99014;-74
2023/06/03 02:20:34;;;;;;;;;;;;;;;7.25;67.81;97561.70;108999;1249;95777;-73
2023/06/03 02:23:02;;;;;;;;;;;;;;;7.22;67.65;97563.67;108785;1249;95900;-73
2023/06/03 02:25:32;;;;;;;;;;;;;;;7.17;67.54;97566.30;108722;1249;103120;-77
2023/06/03 02:28:00;;;;;;;;;;;;;;;7.10;67.63;97569.81;108963;1250;101388;-75
2023/06/03 02:30:28;;;;;;;;;;;;;;;7.05;67.68;97569.90;108967;1250;99852;-76
2023/06/03 02:32:56;;;;;;;;;;;;;;;7.02;67.55;97571.38;108987;1250;95538;-76
2023/06/03 02:35:23;;;;;;;;;;;;;;;6.98;67.66;97576.17;109040;1249;95716;-77
2023/06/03 02:37:52;;;;;;;;;;;;;;;6.96;67.82;97578.16;109040;1249;103603;-78
2023/06/03 02:40:20;;;;;;;;;;;;;;;6.95;67.90;97579.79;108986;1249;101456;-73
2023/06/03 02:42:47;;;;;;;;;;;;;;;6.94;67.91;97581.66;109004;1249;100059;-75
2023/06/03 02:45:15;;;;;;;;;;;;;;;6.91;67.82;97581.86;109012;1250;95538;-73
2023/06/03 02:47:43;;;;;;;;;;;;;;;6.85;67.84;97584.08;108999;1249;95629;-75
2023/06/03 02:50:11;;;;;;;;;;;;;;;6.83;67.93;97587.92;109005;1249;103499;-75
2023/06/03 02:52:40;;;;;;;;;;;;;;;6.80;67.93;97584.19;109033;1249;101321;-79
2023/06/03 02:55:08;;;;;;;;;;;;;;;6.74;67.78;97582.38;108979;1249;99585;-76
2023/06/03 02:57:36;;;;;;;;;;;;;;;6.70;67.92;97583.09;108961;1250;95537;-78
2023/06/03 03:00:10;;;;;;;;;;;;;;;6.66;67.95;97585.30;109057;1249;95675;-75
2023/06/03 03:02:39;;;;;;;;;;;;;;;6.62;67.88;97585.31;108761;1249;103469;-75
2023/06/03 03:05:07;;;;;;;;;;;;;;;6.59;67.96;97589.48;109025;1249;101299;-79
2023/06/03 03:07:36;;;;;;;;;;;;;;;6.56;68.04;97586.98;109010;1249;100211;-78
2023/06/03 03:10:07;;;;;;;;;;;;;;;6.53;68.11;97591.71;108995;1249;95555;-75
2023/06/03 03:12:35;;;;;;;;;;;;;;;6.51;68.19;97598.42;109032;1249;95605;-74
2023/06/03 03:15:03;;;;;;;;;;;;;;;6.48;68.24;97603.27;109036;1249;103501;-74
2023/06/03 03:17:31;;;;;;;;;;;;;;;6.45;68.36;97600.59;109066;1249;101271;-74
2023/06/03 03:19:59;;;;;;;;;;;;;;;6.42;68.33;97600.36;108711;1250;99881;-74
2023/06/03 03:22:27;;;;;;;;;;;;;;;6.40;68.57;97606.53;108901;1249;95771;-72
2023/06/03 03:24:57;;;;;;;;;;;;;;;6.40;68.61;97609.05;109027;1249;95611;-73
2023/06/03 03:27:25;;;;;;;;;;;;;;;6.40;68.59;97612.80;109059;1250;103939;-77
2023/06/03 03:29:58;;;;;;;;;;;;;;;6.37;68.48;97617.11;109030;1250;101522;-74
2023/06/03 03:32:26;;;;;;;;;;;;;;;6.30;68.58;97622.11;109011;1250;99574;-74
2023/06/03 03:35:14;;;;;;;;;;;;;;;6.30;68.74;97622.55;109010;1249;95607;-74
2023/06/03 03:37:42;;;;;;;;;;;;;;;6.30;68.82;97627.14;109072;1250;95830;-73
2023/06/03 03:40:13;;;;;;;;;;;;;;;6.31;68.93;97628.14;109001;1249;103410;-76
2023/06/03 03:42:41;;;;;;;;;;;;;;;6.33;68.96;97627.80;108982;1249;101413;-79
2023/06/03 03:45:16;;;;;;;;;;;;;;;6.34;69.11;97626.15;109005;1249;100142;-73
2023/06/03 03:47:44;;;;;;;;;;;;;;;6.36;69.13;97626.30;108999;1250;95825;-73
2023/06/03 03:50:24;;;;;;;;;;;;;;;6.37;69.12;97629.88;108686;1249;95889;-73
2023/06/03 03:52:52;;;;;;;;;;;;;;;6.39;69.24;97632.42;109009;1250;103246;-74
2023/06/03 03:55:21;;;;;;;;;;;;;;;6.40;69.14;97635.27;109012;1250;101124;-76
2023/06/03 03:57:49;;;;;;;;;;;;;;;6.41;69.26;97635.50;109026;1249;99641;-73
2023/06/03 04:00:19;;;;;;;;;;;;;;;6.43;69.30;97636.19;109010;1249;95563;-74
2023/06/03 04:02:47;;;;;;;;;;;;;;;6.45;69.41;97636.23;109002;1249;96451;-73
2023/06/03 04:05:15;;;;;;;;;;;;;;;6.49;69.47;97638.90;109040;1249;103801;-73
2023/06/03 04:07:44;;;;;;;;;;;;;;;6.50;69.53;97640.88;109019;1249;101619;-73
2023/06/03 04:10:11;;;;;;;;;;;;;;;6.54;69.54;97644.41;108988;1249;100085;-73
2023/06/03 04:12:39;;;;;;;;;;;;;;;6.56;69.57;97645.34;108981;1250;95547;-74
2023/06/03 04:15:08;;;;;;;;;;;;;;;6.59;69.60;97647.61;109068;1250;95616;-73
2023/06/03 04:17:37;;;;;;;;;;;;;;;6.61;69.73;97642.80;109025;1249;103668;-73
2023/06/03 04:20:34;;;;;;;;;;;;;;;6.64;69.80;97647.58;109021;1249;101511;-72
2023/06/03 04:23:04;;;;;;;;;;;;;;;6.69;69.73;97647.98;108974;1249;100048;-74
2023/06/03 04:25:33;;;;;;;;;;;;;;;6.73;69.83;97648.70;109014;1249;95576;-72
2023/06/03 04:28:01;;;;;;;;;;;;;;;6.78;69.87;97649.41;109068;1249;95636;-73
2023/06/03 04:30:29;;;;;;;;;;;;;;;6.83;69.98;97648.77;108815;1249;111783;-75
2023/06/03 04:32:57;;;;;;;;;;;;;;;6.89;69.99;97650.99;109034;1249;101205;-73
2023/06/03 04:35:25;;;;;;;;;;;;;;;6.94;70.10;97653.39;108977;1249;100008;-75
2023/06/03 04:37:53;;;;;;;;;;;;;;;6.99;70.16;97649.92;108689;1251;95870;-77
2023/06/03 04:40:21;;;;;;;;;;;;;;;7.04;70.13;97654.33;108808;1251;95568;-72
2023/06/03 04:42:49;;;;;;;;;;;;;;;7.10;70.25;97654.18;108812;1252;104411;-73
2023/06/03 04:45:17;;;;;;;;;;;;;;;7.14;70.46;97654.55;108830;1251;101260;-72
2023/06/03 04:47:47;;;;;;;;;;;;;;;7.16;70.58;97658.06;108762;1252;99923;-73
2023/06/03 04:50:17;;;;;;;;;;;;;;;7.17;70.61;97659.70;108803;1251;95873;-73
2023/06/03 04:52:45;;;;;;;;;;;;;;;7.21;70.78;97661.24;108747;1251;95725;-74
2023/06/03 04:55:13;;;;;;;;;;;;;;;7.27;70.74;97660.36;108841;1251;103194;-73
2023/06/03 04:57:45;;;;;;;;;;;;;;;7.33;70.76;97660.38;108786;1251;101152;-73
2023/06/03 05:00:18;;;;;;;;;;;;;;;7.40;70.82;97658.14;108556;1253;99873;-72
2023/06/03 05:02:55;;;;;;;;;;;;;;;7.51;70.93;97658.24;108781;1251;95809;-73
2023/06/03 05:05:24;;;;;;;;;;;;;;;7.62;71.04;97660.05;108823;1251;95574;-73
2023/06/03 05:07:53;;;;;;;;;;;;;;;7.72;71.04;97658.84;108537;1253;103355;-73
2023/06/03 05:10:21;;;;;;;;;;;;;;;7.81;70.97;97662.17;108725;1251;101491;-72
2023/06/03 05:12:50;;;;;;;;;;;;;;;7.92;70.87;97660.05;108774;1251;100344;-72
2023/06/03 05:15:19;;;;;;;;;;;;;;;8.05;70.86;97657.69;108758;1251;95819;-72
2023/06/03 05:17:46;;;;;;;;;;;;;;;8.18;70.73;97660.97;108806;1251;95716;-77
2023/06/03 05:20:14;;;;;;;;;;;;;;;8.29;70.49;97660.49;108628;1252;104383;-73
2023/06/03 05:22:42;;;;;;;;;;;;;;;8.42;70.35;97663.04;108846;1251;101275;-73
2023/06/03 05:25:12;;;;;;;;;;;;;;;8.53;70.34;97663.28;108809;1251;99545;-77
2023/06/03 05:27:40;;;;;;;;;;;;;;;8.64;70.31;97661.45;108757;1253;95560;-74
2023/06/03 05:30:08;;;;;;;;;;;;;;;8.76;70.00;97660.35;108827;1251;95652;-73
2023/06/03 05:32:36;;;;;;;;;;;;;;;8.88;69.23;97659.99;108757;1251;103433;-74
2023/06/03 05:35:04;;;;;;;;;;;;;;;9.02;68.52;97661.06;108844;1251;101517;-74
2023/06/03 05:37:32;;;;;;;;;;;;;;;9.16;67.64;97657.68;108838;1249;100214;-77
2023/06/03 05:40:00;;;;;;;;;;;;;;;9.29;67.36;97656.70;108992;1249;95527;-73
2023/06/03 05:42:28;;;;;;;;;;;;;;;9.44;66.53;97656.63;109061;1249;95758;-76
2023/06/03 05:44:56;;;;;;;;;;;;;;;9.57;65.86;97654.30;109044;1250;103201;-76
2023/06/03 05:47:24;;;;;;;;;;;;;;;9.70;65.65;97652.05;109032;1250;101087;-74
2023/06/03 05:49:52;;;;;;;;;;;;;;;9.83;65.25;97649.67;108785;1249;99950;-73
2023/06/03 05:52:20;;;;;;;;;;;;;;;9.95;64.92;97650.21;108971;1249;95513;-73
2023/06/03 05:54:48;;;;;;;;;;;;;;;10.08;64.35;97649.98;108967;1250;95571;-73
2023/06/03 05:57:16;;;;;;;;;;;;;;;10.21;63.68;97648.63;109029;1250;103426;-72
2023/06/03 05:59:45;;;;;;;;;;;;;;;10.32;63.47;97652.70;108983;1250;101466;-73
2023/06/03 06:02:13;;;;;;;;;;;;;;;10.45;63.14;97653.92;108989;1249;99654;-75
2023/06/03 06:04:41;;;;;;;;;;;;;;;10.55;62.40;97651.45;108974;1250;95604;-77
2023/06/03 06:07:09;;;;;;;;;;;;;;;10.64;62.23;97654.90;108989;1249;95631;-74
2023/06/03 06:09:37;;;;;;;;;;;;;;;10.74;61.71;97655.16;108949;1249;103351;-73
2023/06/03 06:12:05;;;;;;;;;;;;;;;10.84;61.48;97655.06;109039;1250;101051;-72
2023/06/03 06:14:33;;;;;;;;;;;;;;;10.94;61.13;97661.59;108793;1249;98969;-73
2023/06/03 06:17:01;;;;;;;;;;;;;;;11.05;60.67;97664.45;109004;1250;95602;-73
2023/06/03 06:19:29;;;;;;;;;;;;;;;11.14;60.14;97660.42;109005;1250;95890;-74
2023/06/03 06:21:58;;;;;;;;;;;;;;;11.26;59.79;97664.36;108845;1249;103637;-73
2023/06/03 06:24:26;;;;;;;;;;;;;;;11.36;59.32;97665.43;108859;1249;100331;-77
2023/06/03 06:26:55;;;;;;;;;;;;;;;11.45;59.00;97672.25;108956;1249;99854;-73
2023/06/03 06:29:23;;;;;;;;;;;;;;;11.53;58.48;97676.34;109004;1250;95671;-77
2023/06/03 06:31:52;;;;;;;;;;;;;;;11.64;58.44;97673.33;109018;1249;95711;-73
2023/06/03 06:34:20;;;;;;;;;;;;;;;11.75;58.27;97669.23;109019;1250;103471;-72
2023/06/03 06:36:52;;;;;;;;;;;;;;;11.84;57.69;97667.02;109010;1250;100390;-74
2023/06/03 06:39:45;;;;;;;;;;;;;;;11.94;57.12;97668.11;108969;1249;100095;-73
2023/06/03 06:42:13;;;;;;;;;;;;;;;12.04;56.54;97665.91;108962;1249;95591;-73
2023/06/03 06:44:46;;;;;;;;;;;;;;;12.13;55.93;97660.24;109037;1250;95739;-74
2023/06/03 06:47:16;;;;;;;;;;;;;;;12.22;55.44;97661.54;109028;1250;103270;-73
2023/06/03 06:49:44;;;;;;;;;;;;;;;12.33;55.68;97662.95;109007;1249;101043;-73
2023/06/03 06:52:13;;;;;;;;;;;;;;;12.40;55.60;97669.58;108986;1250;98747;-73
2023/06/03 06:54:42;;;;;;;;;;;;;;;12.50;55.62;97671.85;109032;1249;95503;-75
2023/06/03 06:57:10;;;;;;;;;;;;;;;12.58;55.48;97672.25;109083;1250;95626;-76
2023/06/03 06:59:38;;;;;;;;;;;;;;;12.65;55.42;97667.67;108903;1249;104701;-73
2023/06/03 07:02:06;;;;;;;;;;;;;;;12.75;55.77;97667.58;108842;1250;101357;-72
2023/06/03 07:04:34;;;;;;;;;;;;;;;12.84;55.45;97668.88;108982;1249;99922;-74
2023/06/03 07:07:02;;;;;;;;;;;;;;;12.95;55.12;97674.50;108988;1249;95658;-73
2023/06/03 07:09:30;;;;;;;;;;;;;;;13.06;54.50;97679.10;108971;1250;95647;-73
2023/06/03 07:11:58;;;;;;;;;;;;;;;13.14;54.06;97676.23;108978;1249;103648;-73
2023/06/03 07:14:29;;;;;;;;;;;;;;;13.18;53.62;97677.73;109014;1250;101662;-73
2023/06/03 07:16:57;;;;;;;;;;;;;;;13.23;53.34;97678.58;108996;1249;99846;-77
2023/06/03 07:19:32;;;;;;;;;;;;;;;13.29;53.19;97679.90;108967;1249;95569;-73
2023/06/03 07:22:01;;;;;;;;;;;;;;;13.39;53.25;97688.70;109089;1250;95908;-73
2023/06/03 07:28:37;;;;;;;5.30;1.60;;;;;;;13.68;52.26;97698.44;102087;1305;635937;-75
2023/06/03 07:31:07;;;;;;;6.70;1.90;;;;;;;13.78;51.95;97704.20;104756;1266;96685;-74
2023/06/03 07:33:46;;;;;;;7.80;2.00;;;;;;;13.89;51.32;97701.52;104442;1266;95968;-73
2023/06/03 07:36:14;;;;;;;5.10;2.00;;;;;;;14.00;51.05;97702.05;104630;1264;99714;-73
2023/06/03 07:39:06;;;;;;;3.40;1.60;;;;;;;14.09;50.74;97698.41;104665;1273;101921;-74
2023/06/03 07:41:41;;;;;;;6.80;1.80;;;;;;;14.23;50.95;97692.23;104676;1272;277966;-74
2023/06/03 07:44:15;;;;;;;5.90;1.70;;;;;;;14.36;50.24;97691.45;104792;1263;95876;-78
2023/06/03 07:46:44;;;;;;;3.60;1.60;;;;;;;14.49;49.29;97683.83;105077;1260;95872;-76
2023/06/03 07:49:17;;;;;;;8.10;1.90;;;;;;;14.65;49.13;97688.41;104826;1257;99911;-73
2023/06/03 07:51:48;;;;;;;4.00;1.80;;;;;;;14.88;48.38;97694.48;104920;1267;101875;-77
2023/06/03 07:54:17;;;;;;;6.30;1.90;;;;;;;15.19;47.98;97697.00;104887;1261;100545;-73
2023/06/03 07:56:47;;;;;;;5.80;2.00;;;;;;;15.52;47.31;97702.36;105085;1270;96127;-73
2023/06/03 07:59:17;;;;;;;3.20;1.70;;;;;;;15.73;46.82;97700.42;104792;1260;95883;-73
2023/06/03 08:01:47;;;;;;;8.50;1.90;;;;;;;16.16;46.64;97698.86;104955;1270;99782;-72
2023/06/03 08:04:21;;;;;;;3.60;1.90;;;;;;;16.67;46.51;97701.68;105192;1264;101808;-74
2023/06/03 08:06:52;;;;;;;2.90;1.90;;;;;;;17.24;46.32;97699.86;105132;1267;100404;-72
2023/06/03 08:09:27;;;;;;;4.20;1.80;;;;;;;17.76;45.40;97696.52;105180;1264;96933;-73
2023/06/03 08:11:57;;;;;;;4.90;1.60;;;;;;;18.14;44.77;97694.45;105202;1254;95870;-74
2023/06/03 08:14:26;;;;;;;5.80;1.70;;;;;;;18.42;44.36;97691.36;105099;1257;101610;-72
2023/06/03 08:16:57;;;;;;;4.80;1.80;;;;;;;18.67;43.85;97698.20;105137;1267;101765;-75
2023/06/03 08:19:25;;;;;;;8.00;1.90;;;;;;;18.88;43.18;97693.79;105040;1256;100285;-73
2023/06/03 08:21:53;;;;;;;5.40;2.10;;;;;;;19.00;42.48;97692.50;105117;1258;96095;-72
2023/06/03 08:24:21;;;;;;;6.90;2.00;;;;;;;19.09;41.78;97696.20;105084;1266;97180;-73
2023/06/03 08:26:50;;;;;;;4.70;1.70;;;;;;;19.34;41.20;97698.61;108714;1253;101253;-78
2023/06/03 08:29:18;;;;;;;5.40;1.60;;;;;;;19.70;41.16;97694.94;108745;1252;101442;-77
2023/06/03 08:31:46;;;;;;;4.70;1.90;;;;;;;20.05;40.80;97697.42;108754;1252;99008;-73
2023/06/03 08:34:14;;;;;;;5.00;2.00;;;;;;;20.43;40.36;97693.48;108768;1254;93620;-74
2023/06/03 08:36:42;;;;;;;5.00;2.10;;;;;;;20.80;39.97;97693.58;108773;1253;93610;-72
2023/06/03 08:39:11;;;;;;;5.70;1.80;;;;;;;21.20;40.16;97694.17;108778;1252;100935;-72
2023/06/03 08:41:44;;;;;;;3.20;2.00;;;;;;;21.63;39.54;97697.40;108822;1253;100285;-71
2023/06/03 08:44:41;;;;;;;5.00;2.00;;;;;;;22.09;39.44;97692.70;108698;1253;99800;-72
2023/06/03 08:47:15;;;;;;;7.50;2.00;;;;;;;22.50;38.19;97696.34;108670;1253;93877;-72
2023/06/03 08:50:04;;;;;;;6.40;1.80;;;;;;;22.78;37.47;97695.40;108725;1253;94041;-72
2023/06/03 08:52:41;;;;;;;5.40;1.80;;;;;;;23.18;37.25;97698.27;108687;1253;100893;-73
2023/06/03 08:55:13;;;;;;;3.80;2.00;;;;;;;23.35;36.61;97695.01;108766;1252;101268;-71
2023/06/03 08:58:05;;;;;;;5.30;2.10;;;;;;;23.41;36.13;97695.02;108378;1252;99920;-73
2023/06/03 09:00:34;;;;;;;10.50;2.30;;;;;;;23.66;35.91;97695.72;108733;1253;93579;-77
2023/06/03 09:03:05;;;;;;;5.30;2.70;;;;;;;23.78;34.99;97697.66;108629;1253;93688;-71
2023/06/03 09:05:35;;;;;;;4.30;1.50;;;;;;;23.99;34.74;97699.78;108731;1252;99964;-72
2023/06/03 09:08:04;;;;;;;6.80;2.20;;;;;;;24.23;33.37;97694.20;108740;1253;101071;-75
2023/06/03 09:10:33;;;;;;;4.40;2.00;;;;;;;24.40;33.34;97689.34;108741;1253;99853;-72
2023/06/03 09:13:03;;;;;;;4.40;1.90;;;;;;;24.38;32.13;97696.42;108734;1252;93691;-74
2023/06/03 09:15:31;;;;;;;3.40;1.90;;;;;;;24.48;32.75;97697.36;108752;1252;93540;-72
2023/06/03 09:17:59;;;;;;;5.20;2.30;;;;;;;24.70;33.11;97694.00;108733;1252;100558;-72
2023/06/03 09:20:27;;;;;;;2.90;1.90;;;;;;;24.92;32.70;97688.94;108734;1253;101037;-72
2023/06/03 09:22:57;;;;;;;5.30;3.10;;;;;;;24.93;32.12;97688.52;108692;1252;98991;-72
2023/06/03 09:25:26;;;;;;;5.30;2.30;;;;;;;24.94;32.39;97690.66;108682;1253;93639;-72
2023/06/03 09:27:55;;;;;;;11.70;8.90;;;;;;;25.13;32.65;97690.52;108700;1253;94606;-79
2023/06/03 09:30:23;;;;;;;4.80;2.60;;;;;;;25.33;32.91;97685.69;108741;1253;101070;-75
2023/06/03 09:32:51;;;;;;;3.30;2.00;;;;;;;25.55;32.72;97687.95;108774;1253;101404;-73
2023/06/03 09:35:20;;;;;;;6.40;3.50;;;;;;;25.70;32.10;97681.48;108720;1251;99997;-72
2023/06/03 09:38:04;;;;;;;4.50;2.20;;;;;;;25.79;31.83;97683.31;108764;1252;93667;-72
2023/06/03 09:40:33;;;;;;;2.00;1.50;;;;;;;25.83;31.06;97680.77;108772;1253;93838;-73
2023/06/03 09:43:10;;;;;;;3.40;1.80;;;;;;;25.81;30.55;97673.23;108770;1252;101288;-74
2023/06/03 09:45:38;;;;;;;3.30;1.80;;;;;;;25.68;29.70;97666.64;108718;1252;100333;-72
2023/06/03 09:48:06;;;;;;;4.90;1.90;;;;;;;25.55;30.14;97670.04;108418;1253;99977;-75
2023/06/03 09:50:48;;;;;;;5.00;1.70;;;;;;;25.45;29.35;97668.31;108601;1253;93675;-73
2023/06/03 09:53:20;;;;;;;;;;;;;;;25.32;29.28;97666.52;108737;1253;93600;-72
2023/06/03 09:55:48;;;;;;;3.00;1.60;;;;;;;25.15;29.14;97661.09;108757;1252;100827;-73
2023/06/03 09:58:22;;;;;;;3.30;1.70;;;;;;;25.04;29.30;97659.77;108761;1251;101067;-73
2023/06/03 10:00:52;;;;;;;2.90;1.60;;;;;;;25.04;29.09;97660.98;108554;1256;99983;-72
2023/06/03 10:03:25;;;;;;;5.70;1.90;;;;;;;24.95;28.94;97663.33;108331;1256;93773;-72
2023/06/03 10:05:53;;;;;;;3.70;2.00;;;;;;;24.95;29.16;97657.81;108367;1256;93697;-72
2023/06/03 10:08:31;;;;;;;3.40;1.90;;;;;;;25.01;28.63;97659.55;108559;1254;100544;-74
2023/06/03 10:11:01;;;;;;;2.50;2.10;;;;;;;24.94;28.37;97655.00;108548;1255;101309;-77
2023/06/03 10:13:29;;;;;;;3.40;1.70;;;;;;;24.91;28.38;97656.13;108514;1255;99954;-77
2023/06/03 10:16:01;;;;;;;3.90;1.60;;;;;;;24.93;29.62;97659.33;108505;1255;93855;-73
2023/06/03 10:18:37;;;;;;;5.70;2.40;;;;;;;25.07;29.82;97650.90;108529;1255;94100;-74
2023/06/03 10:21:11;;;;;;;2.90;1.50;;;;;;;24.93;29.54;97657.75;108362;1257;100098;-73
2023/06/03 10:23:42;;;;;;;2.60;1.90;;;;;;;24.92;29.92;97664.80;108535;1255;101209;-73
2023/06/03 10:26:11;;;;;;;3.60;2.40;;;;;;;24.97;30.20;97658.11;108524;1255;98924;-74
2023/06/03 10:28:40;;;;;;;4.30;2.10;;;;;;;24.95;30.16;97657.65;108372;1256;94616;-73
2023/06/03 10:31:09;;;;;;;4.30;1.90;;;;;;;24.98;29.04;97656.45;108483;1256;93950;-73
2023/06/03 10:33:38;;;;;;;3.50;1.60;;;;;;;24.91;29.09;97655.96;108376;1256;100825;-78
2023/06/03 10:36:07;;;;;;;3.60;1.80;;;;;;;24.96;29.26;97656.25;108543;1255;101301;-75
2023/06/03 10:38:37;;;;;;;7.20;2.10;;;;;;;25.02;29.43;97647.98;108642;1252;99707;-73
2023/06/03 10:41:05;;;;;;;3.00;1.90;;;;;;;25.05;29.39;97646.95;108715;1252;94021;-72
2023/06/03 10:43:35;;;;;;;3.80;1.90;;;;;;;25.05;29.60;97643.74;108663;1252;94852;-73
2023/06/03 10:46:04;;;;;;;5.30;2.40;;;;;;;24.97;29.82;97641.92;108728;1253;100787;-73
2023/06/03 10:48:34;;;;;;;3.80;1.70;;;;;;;24.87;30.33;97643.70;108295;1253;101032;-75
2023/06/03 10:51:20;;;;;;;4.70;2.50;;;;;;;24.92;29.85;97639.17;108553;1251;100096;-73
2023/06/03 10:54:08;;;;;;;4.00;2.20;;;;;;;24.88;30.05;97638.98;108720;1252;93707;-73
2023/06/03 10:56:43;;;;;;;6.40;1.90;;;;;;;24.99;30.26;97632.89;108712;1252;93701;-73
2023/06/03 10:59:17;;;;;;;3.90;2.00;;;;;;;25.03;29.94;97628.80;108766;1252;101043;-74
2023/06/03 11:01:59;;;;;;;2.90;1.80;;;;;;;24.91;29.54;97633.55;108762;1252;101315;-76
2023/06/03 11:04:28;;;;;;;4.30;1.90;;;;;;;24.94;29.18;97630.36;108735;1252;100042;-77
2023/06/03 11:06:57;;;;;;;3.20;2.10;;;;;;;25.03;29.67;97630.35;108655;1253;93661;-78
2023/06/03 11:09:43;;;;;;;4.50;1.80;;;;;;;25.09;29.34;97627.44;108703;1252;93609;-73
2023/06/03 11:12:13;;;;;;;4.40;2.20;;;;;;;24.92;28.98;97622.65;108774;1252;102106;-75
2023/06/03 11:14:42;;;;;;;4.50;2.40;;;;;;;24.89;29.50;97632.88;108719;1252;101352;-79
2023/06/03 11:17:12;;;;;;;5.50;2.10;;;;;;;25.01;30.34;97633.80;108661;1252;99075;-77
2023/06/03 11:19:46;;;;;;;3.20;2.10;;;;;;;25.11;30.18;97633.54;108751;1252;93686;-73
2023/06/03 11:22:36;;;;;;;3.10;2.10;;;;;;;25.07;29.94;97633.89;108681;1253;93943;-72
2023/06/03 11:25:05;;;;;;;6.80;2.20;;;;;;;24.95;29.42;97622.68;108782;1251;100422;-76
2023/06/03 11:27:33;;;;;;;5.50;2.60;;;;;;;24.78;29.99;97625.70;108719;1252;101120;-76
2023/06/03 11:30:06;;;;;;;2.20;1.90;;;;;;;24.78;29.98;97622.50;108727;1252;98408;-73
2023/06/03 11:32:36;;;;;;;4.30;1.90;;;;;;;24.77;29.86;97623.95;108474;1252;93771;-73
2023/06/03 11:35:04;;;;;;;5.20;2.10;;;;;;;24.69;29.01;97626.44;108733;1252;93580;-76
2023/06/03 11:37:43;;;;;;;6.90;1.80;;;;;;;24.64;29.56;97628.29;108745;1252;100507;-78
2023/06/03 11:40:17;;;;;;;4.40;2.50;;;;;;;24.67;29.59;97629.45;108720;1252;101413;-73
2023/06/03 11:42:52;;;;;;;2.80;1.80;;;;;;;24.58;29.67;97625.66;108374;1257;98899;-73
2023/06/03 11:45:20;;;;;;;3.10;2.00;;;;;;;24.50;30.59;97624.98;108704;1252;94225;-73
2023/06/03 11:47:49;;;;;;;4.60;2.30;;;;;;;24.45;30.25;97621.63;108461;1253;94350;-72
2023/06/03 11:50:18;;;;;;;6.50;2.40;;;;;;;24.26;30.07;97619.11;108413;1253;101675;-73
2023/06/03 11:52:47;;;;;;;2.60;2.10;;;;;;;24.15;30.20;97621.48;108564;1253;101410;-73
2023/06/03 11:55:35;;;;;;;6.20;2.10;;;;;;;24.28;30.85;97615.22;108639;1252;98968;-76
2023/06/03 11:58:14;;;;;;;4.70;2.10;;;;;;;24.44;30.35;97609.23;108713;1252;94250;-73
2023/06/03 12:00:42;;;;;;;7.50;2.00;;;;;;;24.31;29.57;97612.30;108709;1251;94237;-73
2023/06/03 12:03:17;;;;;;;4.40;1.60;;;;;;;24.31;29.59;97610.89;108555;1251;102097;-75
2023/06/03 12:05:56;;;;;;;4.10;2.10;;;;;;;24.42;29.87;97611.13;108708;1251;101296;-76
2023/06/03 12:08:24;;;;;;;3.50;2.10;;;;;;;24.56;30.20;97602.79;108330;1253;99956;-75
2023/06/03 12:10:55;;;;;;;3.30;2.10;;;;;;;24.73;30.14;97599.27;108609;1253;94256;-74
2023/06/03 12:13:23;;;;;;;4.90;2.00;;;;;;;24.93;29.55;97601.38;108678;1253;94338;-75
2023/06/03 12:15:52;;;;;;;4.40;2.00;;;;;;;25.06;29.75;97602.41;108738;1252;110519;-73
2023/06/03 12:18:20;;;;;;;5.00;1.70;;;;;;;24.99;29.48;97603.19;108751;1252;99973;-73
2023/06/03 12:20:48;;;;;;;3.10;2.00;;;;;;;25.04;30.05;97599.80;108724;1252;99475;-74
2023/06/03 12:23:16;;;;;;;3.10;1.80;;;;;;;25.18;30.00;97598.23;108580;1253;94562;-72
2023/06/03 12:25:50;;;;;;;2.70;2.00;;;;;;;25.17;29.24;97596.39;108464;1252;94831;-73